Terminal Aerodrome Forecast
Issued by NWS Goodland, KS

Home | Current Version | Previous Version | Text Only | Print | Product List | Glossary On
Versions: 1 2 3 4 5 6 7 8 9 10 11 12 13 14 15 16 17 18
000
FTUS43 KGLD 260500
TAFGLD
TAF
KGLD 260540Z 2606/2706 29010KT P6SM FEW060 OVC110
     FM261700 36015G20KT P6SM FEW200
     FM270200 02013KT P6SM OVC110=

USA.gov is the U.S. government's official web portal to all federal, state and local government web resources and services.